Time;durP1;ratioP1;P1;durP2;ratioP2;P2;SDS_P1;SDS_P2;PMS_P1;PMS_P2;Temp;Humidity;BMP_temperature;BMP_pressure;BME280_temperature;BME280_humidity;BME280_pressure;Samples;Min_cycle;Max_cycle;Signal;HPM_P1;HPM_P2
2022/07/05 00:00:44;;;;;;;4.90;4.50;;;17.90;99.90;;;;;;4900164;29;20204;-77
2022/07/05 00:03:11;;;;;;;4.10;3.80;;;17.90;99.90;;;;;;4893689;29;20278;-77
2022/07/05 00:05:38;;;;;;;3.53;3.30;;;17.90;99.90;;;;;;4917147;29;20614;-77
2022/07/05 00:08:06;;;;;;;3.53;3.33;;;17.90;99.90;;;;;;4917148;29;20252;-77
2022/07/05 00:10:35;;;;;;;4.07;3.77;;;18.00;99.90;;;;;;4917045;29;20213;-77
2022/07/05 00:13:02;;;;;;;4.80;4.40;;;17.90;99.90;;;;;;4916942;29;20220;-76
2022/07/05 00:15:29;;;;;;;5.17;4.83;;;17.90;99.90;;;;;;4899721;29;20211;-76
2022/07/05 00:17:56;;;;;;;5.67;5.27;;;17.90;99.90;;;;;;4903187;29;20211;-76
2022/07/05 00:20:23;;;;;;;3.47;3.20;;;17.80;99.90;;;;;;4916485;29;20192;-76
2022/07/05 00:22:50;;;;;;;8.00;7.40;;;17.70;99.90;;;;;;4916913;29;20637;-78
2022/07/05 00:25:17;;;;;;;6.17;5.77;;;17.70;99.90;;;;;;4899605;29;20215;-77
2022/07/05 00:27:45;;;;;;;6.53;6.13;;;17.70;99.90;;;;;;4899564;29;20286;-78
2022/07/05 00:30:13;;;;;;;7.20;6.70;;;17.60;99.90;;;;;;4904646;29;20306;-77
2022/07/05 00:32:40;;;;;;;8.33;7.73;;;17.60;99.90;;;;;;4895706;29;20612;-77
2022/07/05 00:35:08;;;;;;;8.10;7.60;;;17.50;99.90;;;;;;4916274;29;20252;-77
2022/07/05 00:37:35;;;;;;;6.23;5.73;;;17.50;99.90;;;;;;4899269;29;20217;-77
2022/07/05 00:40:02;;;;;;;8.03;7.33;;;17.40;99.90;;;;;;4898852;29;20198;-77
2022/07/05 00:42:29;;;;;;;7.53;7.03;;;17.40;99.90;;;;;;4899243;29;20308;-77
2022/07/05 00:44:57;;;;;;;7.47;5.83;;;17.40;99.90;;;;;;4899058;29;20776;-77
2022/07/05 00:47:24;;;;;;;4.67;4.37;;;17.30;99.90;;;;;;4899152;29;20207;-77
2022/07/05 00:49:50;;;;;;;6.83;6.33;;;17.30;99.90;;;;;;4916146;29;20600;-77
2022/07/05 00:52:18;;;;;;;8.00;7.40;;;17.30;99.90;;;;;;4899193;29;20227;-77
2022/07/05 00:54:44;;;;;;;7.50;7.00;;;17.20;99.90;;;;;;4899247;29;20676;-77
2022/07/05 00:57:11;;;;;;;7.20;6.70;;;17.20;99.90;;;;;;4898960;29;20255;-77
2022/07/05 00:59:38;;;;;;;7.70;7.20;;;17.10;99.90;;;;;;4899347;29;20203;-76
2022/07/05 01:02:06;;;;;;;7.87;7.33;;;17.10;99.90;;;;;;4916175;29;20236;-77
2022/07/05 01:04:33;;;;;;;7.50;7.00;;;17.10;99.90;;;;;;4898742;29;20631;-77
2022/07/05 01:07:03;;;;;;;7.67;7.13;;;17.00;99.90;;;;;;4899023;29;20263;-77
2022/07/05 01:09:30;;;;;;;7.70;7.20;;;17.10;99.90;;;;;;4899017;29;20214;-77
2022/07/05 01:11:57;;;;;;;8.10;7.60;;;17.00;99.90;;;;;;4898978;29;20285;-76
2022/07/05 01:14:24;;;;;;;8.30;7.70;;;17.00;99.90;;;;;;4899003;29;20631;-77
2022/07/05 01:16:54;;;;;;;8.43;7.73;;;16.90;99.90;;;;;;4899232;29;20231;-77
2022/07/05 01:19:22;;;;;;;7.80;7.30;;;16.90;99.90;;;;;;4893155;29;20658;-76
2022/07/05 01:21:50;;;;;;;7.70;7.20;;;16.90;99.90;;;;;;4923983;29;20268;-77
2022/07/05 01:24:20;;;;;;;8.03;7.53;;;16.80;99.90;;;;;;4898114;29;20211;-77
2022/07/05 01:26:49;;;;;;;8.20;7.60;;;16.80;99.90;;;;;;4898920;29;20700;-76
2022/07/05 01:29:16;;;;;;;8.20;7.60;;;16.70;99.90;;;;;;4899384;29;20211;-76
2022/07/05 01:31:44;;;;;;;8.20;7.70;;;16.60;99.90;;;;;;4899512;29;20247;-76
2022/07/05 01:34:11;;;;;;;8.33;7.73;;;16.50;99.90;;;;;;4911871;29;20288;-76
2022/07/05 01:36:38;;;;;;;8.50;7.90;;;16.50;99.90;;;;;;4919657;29;20211;-77
2022/07/05 01:39:07;;;;;;;7.83;7.33;;;16.50;99.90;;;;;;4902110;29;20212;-77
2022/07/05 01:41:36;;;;;;;8.33;7.73;;;16.50;99.90;;;;;;4902815;29;20556;-77
2022/07/05 01:44:04;;;;;;;8.10;7.60;;;16.40;99.90;;;;;;4919110;29;20215;-76
2022/07/05 01:46:32;;;;;;;7.63;7.13;;;16.40;99.90;;;;;;4919560;29;20619;-77
2022/07/05 01:49:04;;;;;;;7.53;7.00;;;16.40;99.90;;;;;;4919254;29;20249;-76
2022/07/05 01:51:35;;;;;;;7.27;6.80;;;16.40;99.90;;;;;;4902537;29;20274;-76
2022/07/05 01:54:02;;;;;;;8.37;7.73;;;16.40;99.90;;;;;;4905088;29;20229;-77
2022/07/05 01:56:29;;;;;;;7.63;7.13;;;16.40;99.90;;;;;;4902583;29;20292;-77
2022/07/05 01:58:59;;;;;;;7.47;6.97;;;16.40;99.90;;;;;;4902404;29;20262;-77
2022/07/05 02:01:34;;;;;;;7.87;7.27;;;16.40;99.90;;;;;;4902287;29;20195;-77
2022/07/05 02:04:01;;;;;;;7.57;6.97;;;16.40;99.90;;;;;;4901430;29;20227;-76
2022/07/05 02:06:29;;;;;;;7.80;7.30;;;16.40;99.90;;;;;;4902305;29;20698;-77
2022/07/05 02:08:56;;;;;;;7.33;6.83;;;16.40;99.90;;;;;;4902835;29;20209;-76
2022/07/05 02:11:23;;;;;;;8.17;7.57;;;16.40;99.90;;;;;;4918990;29;20221;-77
2022/07/05 02:13:50;;;;;;;8.07;7.47;;;16.40;99.90;;;;;;4901961;29;20233;-77
2022/07/05 02:16:23;;;;;;;7.90;7.40;;;16.40;99.90;;;;;;4901510;29;20199;-76
2022/07/05 02:18:50;;;;;;;8.37;7.67;;;16.30;99.90;;;;;;4901712;29;20565;-77
2022/07/05 02:21:16;;;;;;;8.23;7.67;;;16.30;99.90;;;;;;4901583;29;20252;-76
2022/07/05 02:23:45;;;;;;;8.93;8.33;;;16.30;99.90;;;;;;4901413;29;20285;-76
2022/07/05 02:26:12;;;;;;;8.30;7.70;;;16.20;99.90;;;;;;4902112;29;20574;-77
2022/07/05 02:28:41;;;;;;;8.57;7.97;;;16.20;99.90;;;;;;4901451;29;20217;-77
2022/07/05 02:31:10;;;;;;;8.50;7.90;;;16.10;99.90;;;;;;4897607;29;20216;-76
2022/07/05 02:33:39;;;;;;;8.20;7.60;;;16.10;99.90;;;;;;4901257;29;20305;-77
2022/07/05 02:36:10;;;;;;;9.30;8.60;;;16.00;99.90;;;;;;4918759;29;20196;-77
2022/07/05 02:38:38;;;;;;;9.13;8.53;;;16.00;99.90;;;;;;4901474;29;20262;-77
2022/07/05 02:41:06;;;;;;;8.50;8.00;;;16.00;99.90;;;;;;4901441;29;20228;-77
2022/07/05 02:43:35;;;;;;;9.00;8.40;;;16.00;99.90;;;;;;4901830;29;20314;-77
2022/07/05 02:46:04;;;;;;;8.87;8.27;;;16.00;99.90;;;;;;4901557;29;20221;-78
2022/07/05 02:48:31;;;;;;;9.10;8.50;;;15.90;99.90;;;;;;4918321;29;20214;-76
2022/07/05 02:51:01;;;;;;;8.77;8.20;;;15.90;99.90;;;;;;4901662;29;20216;-78
2022/07/05 02:53:28;;;;;;;8.57;7.97;;;15.90;99.90;;;;;;4902468;29;20229;-78
2022/07/05 02:55:55;;;;;;;8.80;8.20;;;15.80;99.90;;;;;;4902929;29;20213;-78
2022/07/05 02:58:22;;;;;;;9.03;8.43;;;15.80;99.90;;;;;;4902935;29;20226;-79
2022/07/05 03:00:52;;;;;;;9.03;8.43;;;15.80;99.90;;;;;;4903075;29;20197;-79
2022/07/05 03:03:21;;;;;;;8.60;8.00;;;15.80;99.90;;;;;;4903296;29;20245;-80
2022/07/05 03:05:48;;;;;;;9.10;8.40;;;15.70;99.90;;;;;;4904128;29;20684;-80
2022/07/05 03:08:17;;;;;;;9.77;9.17;;;15.60;99.90;;;;;;4914262;29;20306;-80
2022/07/05 03:10:44;;;;;;;9.50;8.90;;;15.60;99.90;;;;;;4908138;29;20653;-79
2022/07/05 03:13:11;;;;;;;9.20;8.60;;;15.50;99.90;;;;;;4896498;29;20249;-79
2022/07/05 03:15:40;;;;;;;9.23;8.63;;;15.50;99.90;;;;;;4897621;29;20737;-78
2022/07/05 03:18:07;;;;;;;9.37;8.70;;;15.50;99.90;;;;;;4902726;29;20245;-80
2022/07/05 03:20:35;;;;;;;8.90;8.33;;;15.40;99.90;;;;;;4902289;29;20245;-77
2022/07/05 03:23:02;;;;;;;9.27;8.67;;;15.40;99.90;;;;;;4901638;29;20216;-77
2022/07/05 03:25:41;;;;;;;10.43;9.73;;;15.40;99.90;;;;;;4901390;29;20682;-76
2022/07/05 03:28:14;;;;;;;9.70;9.10;;;15.30;99.90;;;;;;4898192;29;20200;-76
2022/07/05 03:30:43;;;;;;;9.70;9.00;;;15.30;99.90;;;;;;4901365;29;20200;-78
2022/07/05 03:33:11;;;;;;;9.37;8.77;;;15.30;99.90;;;;;;4893534;29;20232;-78
2022/07/05 03:35:42;;;;;;;9.40;8.80;;;15.30;99.90;;;;;;4901885;29;20243;-78
2022/07/05 03:38:09;;;;;;;9.43;8.83;;;15.30;99.90;;;;;;4901347;29;20689;-78
2022/07/05 03:40:36;;;;;;;10.10;9.40;;;15.40;99.90;;;;;;4901632;29;20200;-78
2022/07/05 03:43:04;;;;;;;10.00;9.30;;;15.40;99.90;;;;;;4903403;29;20217;-78
2022/07/05 03:45:35;;;;;;;10.03;9.33;;;15.40;99.90;;;;;;4901403;29;20204;-78
2022/07/05 03:48:02;;;;;;;10.10;9.40;;;15.40;99.90;;;;;;4903004;29;20205;-78
2022/07/05 03:50:30;;;;;;;10.17;9.47;;;15.40;99.90;;;;;;4905232;29;20296;-78
2022/07/05 03:52:57;;;;;;;10.60;9.90;;;15.30;99.90;;;;;;4899299;29;20241;-78
2022/07/05 03:55:24;;;;;;;10.70;10.00;;;15.30;99.90;;;;;;4902452;29;20223;-78
2022/07/05 03:57:51;;;;;;;10.47;9.77;;;15.30;99.90;;;;;;4902849;29;20200;-78
2022/07/05 04:00:20;;;;;;;10.17;9.57;;;15.30;99.90;;;;;;4902226;29;20204;-78
2022/07/05 04:02:55;;;;;;;10.30;9.60;;;15.30;99.90;;;;;;4902425;29;20252;-78
2022/07/05 04:05:24;;;;;;;10.47;9.87;;;15.40;99.90;;;;;;4902953;29;20200;-78
2022/07/05 04:07:52;;;;;;;11.00;10.30;;;15.40;99.90;;;;;;4902271;29;20665;-78
2022/07/05 04:10:23;;;;;;;11.13;10.43;;;15.50;99.90;;;;;;4902079;29;20200;-78
2022/07/05 04:12:50;;;;;;;11.17;10.47;;;15.50;99.90;;;;;;4918696;29;20225;-78
2022/07/05 04:15:20;;;;;;;10.70;9.90;;;15.50;99.90;;;;;;4915563;29;20197;-82
2022/07/05 04:17:49;;;;;;;9.93;9.33;;;15.60;99.90;;;;;;4915798;29;20214;-78
2022/07/05 04:20:16;;;;;;;10.30;9.60;;;15.70;99.90;;;;;;4899432;29;20693;-78
2022/07/05 04:22:44;;;;;;;9.87;9.20;;;15.70;99.90;;;;;;4898931;29;20325;-78
2022/07/05 04:25:18;;;;;;;9.57;8.97;;;15.80;99.90;;;;;;4894819;29;20203;-79
2022/07/05 04:27:51;;;;;;;9.50;8.90;;;15.90;99.90;;;;;;4899386;29;20256;-78
2022/07/05 04:30:22;;;;;;;9.80;9.17;;;16.00;99.90;;;;;;4901621;29;20566;-78
2022/07/05 04:32:49;;;;;;;9.60;9.00;;;16.10;99.90;;;;;;4900605;29;20246;-78
2022/07/05 04:35:17;;;;;;;10.50;9.70;;;16.10;99.90;;;;;;4900803;29;20288;-78
2022/07/05 04:37:46;;;;;;;9.50;8.90;;;16.20;99.90;;;;;;4901125;29;20671;-79
2022/07/05 04:40:15;;;;;;;9.77;9.17;;;16.30;99.90;;;;;;4901198;29;20207;-77
2022/07/05 04:42:43;;;;;;;9.40;8.80;;;16.40;99.90;;;;;;4901495;29;20708;-78
2022/07/05 04:45:12;;;;;;;9.33;8.73;;;16.60;99.90;;;;;;4893206;29;20206;-78
2022/07/05 04:47:41;;;;;;;9.40;8.80;;;16.70;99.90;;;;;;4900867;29;20200;-78
2022/07/05 04:50:09;;;;;;;8.70;8.20;;;16.90;99.90;;;;;;4900592;29;20253;-79
2022/07/05 04:52:36;;;;;;;9.00;8.43;;;17.00;99.90;;;;;;4913818;29;20696;-78
2022/07/05 04:55:03;;;;;;;9.53;8.93;;;17.30;99.90;;;;;;4900467;29;20222;-78
2022/07/05 04:57:38;;;;;;;8.10;7.50;;;17.70;99.90;;;;;;4897972;29;20677;-78
2022/07/05 05:00:05;;;;;;;3.93;3.50;;;18.10;99.90;;;;;;4892784;29;20305;-78
2022/07/05 05:02:32;;;;;;;3.87;3.50;;;18.20;99.90;;;;;;4917937;29;20230;-79
2022/07/05 05:05:00;;;;;;;3.47;3.17;;;18.20;99.90;;;;;;4918064;29;20204;-78
2022/07/05 05:07:27;;;;;;;3.97;3.40;;;18.20;99.90;;;;;;4905294;29;20576;-79
2022/07/05 05:09:54;;;;;;;9.47;8.60;;;18.20;99.90;;;;;;4904772;29;20259;-78
2022/07/05 05:12:21;;;;;;;3.53;3.20;;;18.10;99.90;;;;;;4921831;29;20650;-79
2022/07/05 05:14:48;;;;;;;3.87;3.40;;;18.10;99.90;;;;;;4905002;29;20265;-78
2022/07/05 05:17:14;;;;;;;3.53;3.23;;;18.10;99.90;;;;;;4899654;29;20267;-78
2022/07/05 05:19:41;;;;;;;9.33;8.63;;;18.20;99.90;;;;;;4922126;29;20692;-78
2022/07/05 05:22:09;;;;;;;8.10;7.40;;;18.20;99.90;;;;;;4904939;29;20563;-78
2022/07/05 05:24:36;;;;;;;6.10;5.60;;;18.40;99.90;;;;;;4921474;29;20200;-78
2022/07/05 05:27:03;;;;;;;6.83;6.33;;;18.60;99.90;;;;;;4922003;29;20824;-78
2022/07/05 05:29:30;;;;;;;6.97;6.40;;;18.80;99.90;;;;;;4921657;29;20207;-78
2022/07/05 05:31:57;;;;;;;7.83;7.20;;;18.80;99.90;;;;;;4920681;29;20222;-78
2022/07/05 05:34:24;;;;;;;6.27;5.70;;;18.70;99.90;;;;;;4921892;23;20233;-78
2022/07/05 05:36:50;;;;;;;5.90;5.40;;;18.90;99.90;;;;;;4900958;29;20581;-78
2022/07/05 05:39:18;;;;;;;6.43;5.97;;;18.90;99.90;;;;;;4903271;29;20682;-79
2022/07/05 05:41:46;;;;;;;7.60;7.10;;;19.10;99.90;;;;;;4917760;29;20197;-78
2022/07/05 05:44:12;;;;;;;8.67;7.97;;;19.30;99.90;;;;;;4900289;29;20230;-79
2022/07/05 05:46:39;;;;;;;7.80;7.30;;;19.80;99.90;;;;;;4877101;29;20213;-78
2022/07/05 05:49:06;;;;;;;7.90;7.20;;;20.50;99.90;;;;;;4901028;29;20204;-79
2022/07/05 05:51:33;;;;;;;7.47;6.97;;;21.20;99.90;;;;;;4902589;29;20208;-76
2022/07/05 05:54:00;;;;;;;6.50;6.10;;;21.90;99.90;;;;;;4883934;29;20669;-80
2022/07/05 05:56:28;;;;;;;7.50;6.90;;;22.70;99.90;;;;;;4883765;29;20200;-79
2022/07/05 05:58:55;;;;;;;8.27;7.57;;;23.10;99.90;;;;;;4877589;29;20667;-81
2022/07/05 06:01:22;;;;;;;7.67;7.17;;;23.60;99.90;;;;;;4900793;29;20201;-79
2022/07/05 06:03:48;;;;;;;5.17;4.70;;;24.00;99.90;;;;;;4883682;29;20225;-80
2022/07/05 06:06:15;;;;;;;8.47;7.97;;;24.30;99.90;;;;;;4900935;29;20665;-80
2022/07/05 06:08:42;;;;;;;8.30;7.80;;;24.60;99.90;;;;;;4900858;29;20212;-80
2022/07/05 06:11:09;;;;;;;5.70;5.20;;;24.80;99.90;;;;;;4901619;29;20205;-80
2022/07/05 06:13:37;;;;;;;6.00;5.60;;;24.80;99.90;;;;;;4884482;29;20228;-81
2022/07/05 06:16:06;;;;;;;6.27;5.87;;;25.00;99.90;;;;;;4900315;29;20200;-80
2022/07/05 06:18:33;;;;;;;5.03;3.20;;;25.40;99.90;;;;;;4883109;29;20208;-80
2022/07/05 06:21:00;;;;;;;3.97;3.47;;;25.80;99.90;;;;;;4876731;29;20217;-80
2022/07/05 06:23:27;;;;;;;3.80;3.50;;;26.00;99.90;;;;;;4883257;29;20307;-81
2022/07/05 06:25:54;;;;;;;5.33;4.83;;;26.10;99.90;;;;;;4884860;29;20256;-81
2022/07/05 06:28:20;;;;;;;6.47;5.97;;;26.20;99.90;;;;;;4902082;29;20201;-80
2022/07/05 06:30:49;;;;;;;7.23;5.07;;;26.40;99.90;;;;;;4884949;29;20252;-80
2022/07/05 06:33:15;;;;;;;3.73;3.43;;;26.50;99.90;;;;;;4902206;29;20232;-79
2022/07/05 06:35:42;;;;;;;4.43;4.03;;;26.40;99.90;;;;;;4888295;29;20212;-82
2022/07/05 06:38:10;;;;;;;6.00;5.50;;;26.70;99.90;;;;;;4894422;29;20279;-78
2022/07/05 06:40:38;;;;;;;2.40;2.20;;;26.90;99.90;;;;;;4883816;29;20631;-79
2022/07/05 06:43:08;;;;;;;6.03;5.10;;;27.00;99.90;;;;;;4902695;29;20213;-79
2022/07/05 06:45:42;;;;;;;7.33;6.83;;;27.00;99.90;;;;;;4888000;29;20223;-78
2022/07/05 06:48:12;;;;;;;7.70;7.20;;;27.10;99.90;;;;;;4902079;29;20245;-79
2022/07/05 06:50:40;;;;;;;3.13;2.83;;;27.00;99.90;;;;;;4885277;29;20205;-81
2022/07/05 06:53:08;;;;;;;2.77;2.50;;;27.10;99.90;;;;;;4901725;29;20262;-78
2022/07/05 06:55:35;;;;;;;3.00;2.70;;;27.30;99.90;;;;;;4885171;29;20208;-78
2022/07/05 06:58:04;;;;;;;5.63;3.90;;;27.50;99.90;;;;;;4885144;29;20192;-78
2022/07/05 07:00:31;;;;;;;3.77;2.60;;;27.30;99.90;;;;;;4901885;29;20222;-79
2022/07/05 07:02:59;;;;;;;6.73;6.20;;;27.40;99.90;;;;;;4887508;29;20678;-78
2022/07/05 07:05:28;;;;;;;7.00;6.50;;;27.40;99.90;;;;;;4901757;29;20262;-78
2022/07/05 07:10:39;;;;;;;5.23;4.80;;;27.80;99.90;;;;;;4902447;29;20200;-79
2022/07/05 07:13:06;;;;;;;6.70;6.30;;;28.00;99.90;;;;;;4885073;29;20228;-78
2022/07/05 07:15:34;;;;;;;3.23;2.90;;;28.10;99.90;;;;;;4901740;29;20205;-79
2022/07/05 07:18:01;;;;;;;6.40;5.97;;;28.00;99.90;;;;;;4902228;29;20219;-79
2022/07/05 07:20:29;;;;;;;7.13;6.23;;;28.00;99.90;;;;;;4902033;29;20200;-79
2022/07/05 07:22:56;;;;;;;7.10;6.70;;;28.10;99.90;;;;;;4901848;29;20220;-79
2022/07/05 07:25:23;;;;;;;5.57;5.00;;;28.40;99.90;;;;;;4885418;29;20204;-79
2022/07/05 07:27:51;;;;;;;6.87;6.27;;;28.30;99.90;;;;;;4901736;29;20228;-79
2022/07/05 07:30:20;;;;;;;6.70;6.30;;;28.50;99.90;;;;;;4883096;29;20666;-79
2022/07/05 07:32:47;;;;;;;5.30;4.80;;;28.50;99.60;;;;;;4884233;29;20232;-79
2022/07/05 07:35:15;;;;;;;5.70;5.30;;;28.10;99.90;;;;;;4900958;29;20675;-79
2022/07/05 07:37:43;;;;;;;5.87;5.47;;;28.30;99.90;;;;;;4884398;29;20204;-79
2022/07/05 07:40:10;;;;;;;7.40;6.23;;;28.60;99.90;;;;;;4893303;29;20284;-79
2022/07/05 07:42:37;;;;;;;5.30;4.80;;;28.60;99.40;;;;;;4880690;29;20193;-79
2022/07/05 07:45:05;;;;;;;5.00;4.50;;;28.80;99.90;;;;;;4899693;29;20256;-77
2022/07/05 07:47:32;;;;;;;7.27;6.67;;;29.00;98.20;;;;;;4898087;29;20196;-77
2022/07/05 07:50:07;;;;;;;5.47;4.97;;;29.00;98.10;;;;;;5104166;27;20587;-77
2022/07/05 07:52:34;;;;;;;4.60;4.30;;;29.00;98.20;;;;;;5094604;28;20212;-78
2022/07/05 07:55:01;;;;;;;7.00;6.50;;;29.10;97.90;;;;;;5082778;28;20470;-78
2022/07/05 07:57:28;;;;;;;7.20;6.50;;;29.20;97.60;;;;;;5075983;28;20199;-78
2022/07/05 07:59:55;;;;;;;7.00;6.50;;;28.90;97.70;;;;;;5081433;28;20195;-78
2022/07/05 08:02:22;;;;;;;7.03;5.87;;;29.30;99.10;;;;;;5091614;22;20229;-77
2022/07/05 08:04:50;;;;;;;5.57;4.77;;;29.40;96.50;;;;;;5051381;28;20187;-77
2022/07/05 08:07:19;;;;;;;5.90;5.53;;;29.40;96.10;;;;;;5067154;28;20195;-78
2022/07/05 08:09:46;;;;;;;5.27;4.80;;;29.40;95.80;;;;;;5050966;28;20218;-77
2022/07/05 08:12:13;;;;;;;7.00;6.50;;;29.50;97.50;;;;;;5062886;28;20210;-77
2022/07/05 08:14:40;;;;;;;7.37;6.80;;;29.50;96.90;;;;;;5038901;28;20551;-77
2022/07/05 08:17:08;;;;;;;7.20;6.70;;;29.60;97.10;;;;;;5059764;28;20249;-77
2022/07/05 08:22:22;;;;;;;5.60;5.20;;;29.70;96.40;;;;;;5035014;28;20219;-77
2022/07/05 08:24:49;;;;;;;5.00;4.70;;;30.00;96.70;;;;;;5059989;28;20253;-79
2022/07/05 08:27:16;;;;;;;5.10;4.80;;;30.10;96.50;;;;;;5036897;28;20207;-79
2022/07/05 08:29:43;;;;;;;5.63;5.13;;;30.10;94.60;;;;;;5038295;28;20216;-79
2022/07/05 08:32:10;;;;;;;7.10;6.50;;;30.20;96.40;;;;;;5038882;28;20223;-79
2022/07/05 08:34:37;;;;;;;6.33;5.83;;;30.30;94.90;;;;;;5063690;28;20191;-80
2022/07/05 08:37:05;;;;;;;5.50;5.10;;;30.30;96.00;;;;;;5071139;28;20679;-78
2022/07/05 08:39:33;;;;;;;5.37;5.07;;;30.10;94.70;;;;;;5069104;28;20187;-77
2022/07/05 08:42:00;;;;;;;5.90;5.40;;;30.20;95.30;;;;;;5057929;28;20269;-78
2022/07/05 08:44:29;;;;;;;5.47;5.07;;;30.50;94.00;;;;;;5034355;28;20203;-77
2022/07/05 08:46:57;;;;;;;5.37;4.87;;;30.60;94.90;;;;;;5054318;28;20274;-77
2022/07/05 08:49:25;;;;;;;4.93;4.63;;;30.60;95.30;;;;;;5049492;28;20207;-79
2022/07/05 08:51:53;;;;;;;4.80;4.50;;;30.40;96.00;;;;;;5059152;28;20251;-79
2022/07/05 08:54:22;;;;;;;5.40;4.90;;;30.40;95.20;;;;;;5056375;28;20218;-77
2022/07/05 08:56:50;;;;;;;4.80;4.40;;;30.40;94.70;;;;;;5057403;28;20259;-76
2022/07/05 08:59:17;;;;;;;4.90;4.50;;;30.20;94.60;;;;;;5040467;28;20202;-78
2022/07/05 09:01:46;;;;;;;4.80;4.50;;;30.10;94.80;;;;;;5019217;28;20809;-77
2022/07/05 09:04:15;;;;;;;4.90;4.50;;;30.20;95.50;;;;;;5012671;28;20259;-76
2022/07/05 09:06:42;;;;;;;5.20;4.70;;;30.00;94.40;;;;;;5034854;28;20614;-78
2022/07/05 09:09:09;;;;;;;5.20;4.77;;;30.10;96.30;;;;;;5039786;28;20633;-77
2022/07/05 09:11:38;;;;;;;4.90;4.50;;;30.00;94.70;;;;;;5013520;28;20212;-78
2022/07/05 09:14:07;;;;;;;5.10;4.60;;;29.70;95.90;;;;;;5043543;28;20575;-78
2022/07/05 09:16:34;;;;;;;4.90;4.60;;;29.90;96.90;;;;;;5043507;28;20220;-78
2022/07/05 09:19:10;;;;;;;5.90;5.43;;;30.10;96.20;;;;;;5025714;28;20234;-78
2022/07/05 09:21:37;;;;;;;5.80;5.30;;;30.10;94.80;;;;;;5043340;28;20211;-77
2022/07/05 09:24:06;;;;;;;6.40;6.00;;;30.40;96.40;;;;;;5028822;28;20212;-78
2022/07/05 09:26:35;;;;;;;5.93;5.53;;;30.60;96.20;;;;;;5026421;28;20199;-77
2022/07/05 09:29:03;;;;;;;7.27;6.67;;;31.00;94.40;;;;;;5044048;28;20241;-78
2022/07/05 09:31:33;;;;;;;6.37;5.93;;;31.10;95.60;;;;;;5042228;28;20638;-78
2022/07/05 09:34:07;;;;;;;6.10;5.70;;;31.40;95.30;;;;;;5020929;28;20208;-78
2022/07/05 09:36:51;;;;;;;5.37;4.90;;;31.60;96.10;;;;;;5045881;28;20729;-77
2022/07/05 09:39:18;;;;;;;5.27;4.87;;;31.90;94.90;;;;;;5028755;28;20192;-78
2022/07/05 09:41:45;;;;;;;4.90;4.60;;;31.80;94.00;;;;;;5040840;28;20637;-78
2022/07/05 09:44:12;;;;;;;5.23;4.80;;;31.70;95.20;;;;;;5024964;28;20661;-77
2022/07/05 09:46:40;;;;;;;5.50;5.10;;;31.90;95.30;;;;;;5025155;28;20204;-78
2022/07/05 09:49:07;;;;;;;5.33;4.90;;;32.00;93.90;;;;;;5046188;28;20619;-79
2022/07/05 09:51:48;;;;;;;5.37;4.80;;;31.80;93.10;;;;;;5043442;28;20216;-78
2022/07/05 09:54:15;;;;;;;4.93;4.63;;;31.60;93.50;;;;;;5022036;28;20208;-78
2022/07/05 09:56:46;;;;;;;5.50;5.00;;;31.70;93.10;;;;;;5028781;28;20554;-78
2022/07/05 09:59:15;;;;;;;5.37;4.97;;;31.90;92.80;;;;;;5033899;28;20203;-77
2022/07/05 10:01:44;;;;;;;5.33;4.70;;;32.00;93.10;;;;;;5040308;28;20220;-78
2022/07/05 10:04:11;;;;;;;5.07;4.77;;;31.90;92.70;;;;;;5016644;28;20649;-78
2022/07/05 10:06:37;;;;;;;6.03;4.60;;;31.80;92.30;;;;;;5024661;28;20429;-78
2022/07/05 10:09:05;;;;;;;5.07;4.67;;;32.00;91.50;;;;;;5025988;28;20278;-77
2022/07/05 10:11:32;;;;;;;4.90;4.53;;;31.70;92.00;;;;;;5035816;28;20208;-77
2022/07/05 10:14:02;;;;;;;5.10;4.80;;;31.80;91.30;;;;;;5019934;28;20269;-77
2022/07/05 10:16:29;;;;;;;5.27;4.87;;;32.20;92.50;;;;;;5021451;28;20667;-78
2022/07/05 10:18:57;;;;;;;5.63;5.03;;;31.80;91.30;;;;;;5043088;28;20200;-78
2022/07/05 10:21:26;;;;;;;4.57;4.27;;;31.70;91.20;;;;;;5042507;28;20235;-78
2022/07/05 10:23:55;;;;;;;4.90;4.60;;;31.40;86.80;;;;;;5042437;28;20202;-77
2022/07/05 10:26:24;;;;;;;5.17;4.80;;;31.40;90.20;;;;;;5024739;28;20196;-77
2022/07/05 10:28:54;;;;;;;6.63;6.07;;;31.30;91.30;;;;;;5045819;28;20582;-77
2022/07/05 10:31:22;;;;;;;6.47;6.07;;;31.10;89.60;;;;;;5024303;28;20599;-78
2022/07/05 10:33:50;;;;;;;6.30;6.00;;;31.20;90.00;;;;;;5024666;28;20203;-77
2022/07/05 10:36:18;;;;;;;5.90;5.40;;;31.60;88.90;;;;;;5042817;28;20246;-78
2022/07/05 10:38:47;;;;;;;6.27;5.87;;;31.10;84.50;;;;;;5042233;28;20246;-76
2022/07/05 10:41:19;;;;;;;6.23;5.73;;;30.70;89.80;;;;;;5024509;28;20224;-77
2022/07/05 10:43:46;;;;;;;6.50;6.10;;;30.20;86.90;;;;;;5039140;28;20192;-76
2022/07/05 10:46:33;;;;;;;3.57;3.27;;;30.00;87.40;;;;;;5027018;28;20675;-77
2022/07/05 10:49:11;;;;;;;2.43;2.20;;;29.90;87.20;;;;;;5046434;28;20208;-79
2022/07/05 10:51:39;;;;;;;3.30;3.10;;;29.60;87.80;;;;;;5049219;28;20264;-80
2022/07/05 10:54:06;;;;;;;4.57;4.37;;;29.50;85.50;;;;;;5046941;28;20195;-79
2022/07/05 10:56:33;;;;;;;4.17;2.63;;;29.50;87.60;;;;;;5046299;28;20192;-79
2022/07/05 10:59:11;;;;;;;5.70;5.40;;;29.80;88.00;;;;;;5048658;28;20256;-79
2022/07/05 11:01:42;;;;;;;5.70;5.30;;;30.10;87.90;;;;;;5029116;28;20226;-79
2022/07/05 11:04:26;;;;;;;5.60;5.20;;;30.10;86.20;;;;;;5025104;28;20253;-79
2022/07/05 11:06:54;;;;;;;6.10;5.70;;;30.10;86.30;;;;;;5041907;28;20241;-79
2022/07/05 11:09:22;;;;;;;5.60;5.20;;;29.90;85.60;;;;;;5028090;28;20240;-79
2022/07/05 11:12:06;;;;;;;5.57;5.07;;;30.20;86.70;;;;;;5046852;28;20211;-78
2022/07/05 11:14:40;;;;;;;5.67;5.17;;;30.10;85.60;;;;;;5047221;28;20241;-79
2022/07/05 11:17:19;;;;;;;5.90;5.50;;;30.20;87.30;;;;;;5031148;28;20203;-79
2022/07/05 11:20:09;;;;;;;5.57;5.17;;;29.80;86.30;;;;;;5025402;28;20262;-79
2022/07/05 11:22:41;;;;;;;4.13;3.73;;;29.30;87.30;;;;;;5035863;28;20230;-79
2022/07/05 11:25:11;;;;;;;5.13;4.60;;;29.30;88.00;;;;;;5030045;28;20196;-79
2022/07/05 11:28:06;;;;;;;5.90;5.50;;;29.40;88.10;;;;;;5029663;28;20205;-79
2022/07/05 11:30:50;;;;;;;4.67;4.37;;;29.60;87.70;;;;;;5027374;28;20219;-80
2022/07/05 11:33:44;;;;;;;4.10;1.90;;;29.40;88.00;;;;;;5024932;28;20245;-78
2022/07/05 11:36:22;;;;;;;5.30;5.00;;;29.50;90.20;;;;;;4975684;28;20207;-81
2022/07/05 11:39:15;;;;;;;3.50;3.30;;;29.60;86.90;;;;;;5044857;28;20194;-81
2022/07/05 11:41:46;;;;;;;2.03;1.70;;;29.50;85.00;;;;;;5029906;28;20630;-80
2022/07/05 11:44:14;;;;;;;4.10;3.07;;;29.30;85.10;;;;;;5024563;28;20199;-81
2022/07/05 11:46:43;;;;;;;6.20;5.60;;;28.90;84.30;;;;;;5024272;28;20249;-80
2022/07/05 11:49:09;;;;;;;2.10;1.80;;;28.70;84.20;;;;;;5044558;28;20279;-80
2022/07/05 11:51:36;;;;;;;2.63;1.60;;;28.50;87.80;;;;;;5026851;28;20739;-80
2022/07/05 11:54:05;;;;;;;3.77;3.50;;;28.50;82.30;;;;;;5028355;28;20234;-79
2022/07/05 11:56:33;;;;;;;4.87;4.37;;;28.40;86.10;;;;;;5042670;28;20230;-80
2022/07/05 11:59:00;;;;;;;2.57;2.37;;;28.10;84.70;;;;;;5038801;28;20195;-81
2022/07/05 12:01:27;;;;;;;4.53;3.67;;;27.90;87.60;;;;;;5025559;28;20227;-80
2022/07/05 12:03:55;;;;;;;5.50;5.00;;;28.20;86.80;;;;;;5042353;28;20192;-80
2022/07/05 12:06:23;;;;;;;5.30;4.90;;;28.10;85.50;;;;;;5045822;28;20202;-80
2022/07/05 12:09:03;;;;;;;3.10;1.90;;;28.20;83.80;;;;;;5026869;28;20214;-80
2022/07/05 12:14:22;;;;;;;1.70;1.60;;;28.60;86.60;;;;;;5021037;28;20195;-80
2022/07/05 12:16:49;;;;;;;1.97;1.70;;;28.90;88.10;;;;;;5028056;28;20719;-80
2022/07/05 12:19:25;;;;;;;1.70;1.60;;;28.80;86.30;;;;;;5022694;28;20195;-83
2022/07/05 12:21:53;;;;;;;4.23;2.00;;;28.50;85.40;;;;;;5038682;28;20211;-79
2022/07/05 12:24:20;;;;;;;2.47;1.80;;;28.00;88.00;;;;;;5029443;28;20203;-80
2022/07/05 12:26:48;;;;;;;3.30;3.10;;;28.00;90.10;;;;;;5026085;28;20200;-79
2022/07/05 12:29:16;;;;;;;2.57;1.80;;;28.10;90.00;;;;;;5025430;28;20253;-80
2022/07/05 12:32:03;;;;;;;4.13;3.93;;;27.90;89.60;;;;;;5044476;28;20208;-80
2022/07/05 12:34:30;;;;;;;4.50;4.20;;;27.60;87.10;;;;;;5034135;28;20681;-80
2022/07/05 12:36:58;;;;;;;5.90;5.27;;;27.70;90.00;;;;;;5042828;28;20260;-80
2022/07/05 12:39:25;;;;;;;2.70;2.00;;;27.70;87.20;;;;;;5027849;28;20226;-79
2022/07/05 12:41:52;;;;;;;2.47;2.27;;;27.40;85.80;;;;;;5048086;28;20222;-80
2022/07/05 12:44:21;;;;;;;1.87;1.50;;;27.30;87.60;;;;;;5047851;28;20187;-81
2022/07/05 12:46:50;;;;;;;4.27;3.87;;;27.30;86.80;;;;;;5048123;28;20270;-80
2022/07/05 12:49:18;;;;;;;5.27;4.97;;;27.10;87.70;;;;;;5031992;28;20203;-80
2022/07/05 12:51:46;;;;;;;5.30;5.00;;;27.20;90.10;;;;;;5050340;28;20337;-79
2022/07/05 13:00:00;;;;;;;5.70;5.30;;;27.80;86.80;;;;;;5003906;28;20201;-79
2022/07/05 13:02:38;;;;;;;5.23;4.93;;;27.90;86.80;;;;;;5027377;28;20290;-80
2022/07/05 13:05:09;;;;;;;5.37;4.97;;;28.00;90.20;;;;;;5046876;28;20258;-80
2022/07/05 13:07:42;;;;;;;5.67;5.27;;;27.80;86.30;;;;;;5043713;28;20672;-79